sensor_id;sensor_type;location;lat;lon;timestamp;P1;durP1;ratioP1;P2;durP2;ratioP2
80392;SDS011;69719;45.544;10.218;2023-04-29T00:01:06;17.02;;;9.77;;
80392;SDS011;69719;45.544;10.218;2023-04-29T00:03:31;20.00;;;11.30;;
80392;SDS011;69719;45.544;10.218;2023-04-29T00:05:57;20.35;;;10.32;;
80392;SDS011;69719;45.544;10.218;2023-04-29T00:08:23;21.13;;;10.98;;
80392;SDS011;69719;45.544;10.218;2023-04-29T00:10:49;19.70;;;10.02;;
80392;SDS011;69719;45.544;10.218;2023-04-29T00:13:15;22.90;;;11.05;;
80392;SDS011;69719;45.544;10.218;2023-04-29T00:15:41;24.48;;;13.85;;
80392;SDS011;69719;45.544;10.218;2023-04-29T00:18:07;26.67;;;13.60;;
80392;SDS011;69719;45.544;10.218;2023-04-29T00:20:33;19.25;;;10.70;;
80392;SDS011;69719;45.544;10.218;2023-04-29T00:22:59;18.45;;;11.35;;
80392;SDS011;69719;45.544;10.218;2023-04-29T00:25:24;20.63;;;11.18;;
80392;SDS011;69719;45.544;10.218;2023-04-29T00:27:50;19.88;;;11.63;;
80392;SDS011;69719;45.544;10.218;2023-04-29T00:30:15;22.05;;;11.80;;
80392;SDS011;69719;45.544;10.218;2023-04-29T00:32:41;21.65;;;11.05;;
80392;SDS011;69719;45.544;10.218;2023-04-29T00:35:07;21.20;;;11.30;;
80392;SDS011;69719;45.544;10.218;2023-04-29T00:37:33;19.75;;;9.52;;
80392;SDS011;69719;45.544;10.218;2023-04-29T00:39:59;30.80;;;18.05;;
80392;SDS011;69719;45.544;10.218;2023-04-29T00:42:24;19.13;;;10.48;;
80392;SDS011;69719;45.544;10.218;2023-04-29T00:44:50;18.52;;;10.68;;
80392;SDS011;69719;45.544;10.218;2023-04-29T00:47:16;17.05;;;9.90;;
80392;SDS011;69719;45.544;10.218;2023-04-29T00:49:42;24.05;;;11.30;;
80392;SDS011;69719;45.544;10.218;2023-04-29T00:52:07;20.52;;;11.02;;
80392;SDS011;69719;45.544;10.218;2023-04-29T00:54:35;18.77;;;10.73;;
80392;SDS011;69719;45.544;10.218;2023-04-29T00:57:04;18.73;;;10.02;;
80392;SDS011;69719;45.544;10.218;2023-04-29T00:59:31;18.65;;;10.63;;
80392;SDS011;69719;45.544;10.218;2023-04-29T01:01:59;19.58;;;10.60;;
80392;SDS011;69719;45.544;10.218;2023-04-29T01:04:26;22.13;;;10.43;;
80392;SDS011;69719;45.544;10.218;2023-04-29T01:14:59;19.30;;;10.85;;
80392;SDS011;69719;45.544;10.218;2023-04-29T01:17:30;25.00;;;12.48;;
80392;SDS011;69719;45.544;10.218;2023-04-29T01:20:01;24.77;;;11.43;;
80392;SDS011;69719;45.544;10.218;2023-04-29T01:22:28;21.65;;;11.00;;
80392;SDS011;69719;45.544;10.218;2023-04-29T01:24:54;20.63;;;11.20;;
80392;SDS011;69719;45.544;10.218;2023-04-29T01:33:13;22.40;;;11.45;;
80392;SDS011;69719;45.544;10.218;2023-04-29T01:41:17;19.17;;;11.25;;
80392;SDS011;69719;45.544;10.218;2023-04-29T01:43:49;20.85;;;10.88;;
80392;SDS011;69719;45.544;10.218;2023-04-29T01:46:16;21.35;;;10.68;;
80392;SDS011;69719;45.544;10.218;2023-04-29T01:48:45;22.20;;;11.82;;
80392;SDS011;69719;45.544;10.218;2023-04-29T01:51:11;23.67;;;12.02;;
80392;SDS011;69719;45.544;10.218;2023-04-29T01:53:37;19.15;;;10.48;;
80392;SDS011;69719;45.544;10.218;2023-04-29T01:56:05;20.77;;;10.75;;
80392;SDS011;69719;45.544;10.218;2023-04-29T01:58:31;20.65;;;10.38;;
80392;SDS011;69719;45.544;10.218;2023-04-29T02:00:57;20.48;;;9.93;;
80392;SDS011;69719;45.544;10.218;2023-04-29T02:03:22;19.35;;;10.70;;
80392;SDS011;69719;45.544;10.218;2023-04-29T02:05:48;19.52;;;10.82;;
80392;SDS011;69719;45.544;10.218;2023-04-29T02:08:15;19.63;;;10.57;;
80392;SDS011;69719;45.544;10.218;2023-04-29T02:10:41;27.27;;;12.30;;
80392;SDS011;69719;45.544;10.218;2023-04-29T02:13:06;19.40;;;10.68;;
80392;SDS011;69719;45.544;10.218;2023-04-29T02:15:32;21.52;;;10.73;;
80392;SDS011;69719;45.544;10.218;2023-04-29T02:17:57;19.63;;;10.90;;
80392;SDS011;69719;45.544;10.218;2023-04-29T02:20:23;21.80;;;11.52;;
80392;SDS011;69719;45.544;10.218;2023-04-29T02:22:48;20.98;;;11.80;;
80392;SDS011;69719;45.544;10.218;2023-04-29T02:25:14;20.70;;;10.32;;
80392;SDS011;69719;45.544;10.218;2023-04-29T02:27:39;24.05;;;11.13;;
80392;SDS011;69719;45.544;10.218;2023-04-29T02:30:05;21.60;;;11.00;;
80392;SDS011;69719;45.544;10.218;2023-04-29T02:32:31;21.55;;;11.10;;
80392;SDS011;69719;45.544;10.218;2023-04-29T02:34:57;23.55;;;10.38;;
80392;SDS011;69719;45.544;10.218;2023-04-29T02:37:22;19.35;;;11.00;;
80392;SDS011;69719;45.544;10.218;2023-04-29T02:39:48;22.25;;;10.82;;
80392;SDS011;69719;45.544;10.218;2023-04-29T02:42:13;23.88;;;10.63;;
80392;SDS011;69719;45.544;10.218;2023-04-29T02:44:39;18.55;;;10.98;;
80392;SDS011;69719;45.544;10.218;2023-04-29T02:47:05;18.27;;;10.38;;
80392;SDS011;69719;45.544;10.218;2023-04-29T02:49:31;19.92;;;10.32;;
80392;SDS011;69719;45.544;10.218;2023-04-29T02:51:56;18.42;;;11.30;;
80392;SDS011;69719;45.544;10.218;2023-04-29T02:54:22;21.02;;;11.07;;
80392;SDS011;69719;45.544;10.218;2023-04-29T02:56:48;22.00;;;11.70;;
80392;SDS011;69719;45.544;10.218;2023-04-29T02:59:13;22.77;;;11.52;;
80392;SDS011;69719;45.544;10.218;2023-04-29T03:01:39;18.38;;;10.48;;
80392;SDS011;69719;45.544;10.218;2023-04-29T03:04:05;21.88;;;11.43;;
80392;SDS011;69719;45.544;10.218;2023-04-29T03:06:30;20.65;;;10.60;;
80392;SDS011;69719;45.544;10.218;2023-04-29T03:08:56;21.55;;;11.05;;
80392;SDS011;69719;45.544;10.218;2023-04-29T03:11:22;24.73;;;12.38;;
80392;SDS011;69719;45.544;10.218;2023-04-29T03:13:48;24.48;;;12.30;;
80392;SDS011;69719;45.544;10.218;2023-04-29T03:16:14;38.33;;;13.95;;
80392;SDS011;69719;45.544;10.218;2023-04-29T03:18:41;38.67;;;14.40;;
80392;SDS011;69719;45.544;10.218;2023-04-29T03:21:09;23.15;;;11.95;;
80392;SDS011;69719;45.544;10.218;2023-04-29T03:23:35;29.60;;;13.50;;
80392;SDS011;69719;45.544;10.218;2023-04-29T03:26:03;29.10;;;12.10;;
80392;SDS011;69719;45.544;10.218;2023-04-29T03:28:29;24.13;;;11.65;;
80392;SDS011;69719;45.544;10.218;2023-04-29T03:30:54;22.75;;;11.68;;
80392;SDS011;69719;45.544;10.218;2023-04-29T03:33:20;21.65;;;10.95;;
80392;SDS011;69719;45.544;10.218;2023-04-29T03:35:46;24.00;;;11.73;;
80392;SDS011;69719;45.544;10.218;2023-04-29T03:38:11;20.65;;;11.25;;
80392;SDS011;69719;45.544;10.218;2023-04-29T03:40:37;17.92;;;10.43;;
80392;SDS011;69719;45.544;10.218;2023-04-29T03:43:02;23.15;;;11.48;;
80392;SDS011;69719;45.544;10.218;2023-04-29T03:45:28;20.92;;;11.27;;
80392;SDS011;69719;45.544;10.218;2023-04-29T03:47:54;20.75;;;11.02;;
80392;SDS011;69719;45.544;10.218;2023-04-29T03:50:19;24.33;;;12.38;;
80392;SDS011;69719;45.544;10.218;2023-04-29T03:52:45;20.58;;;11.50;;
80392;SDS011;69719;45.544;10.218;2023-04-29T03:55:11;21.80;;;11.32;;
80392;SDS011;69719;45.544;10.218;2023-04-29T03:57:36;23.25;;;11.57;;
80392;SDS011;69719;45.544;10.218;2023-04-29T04:00:03;20.08;;;10.90;;
80392;SDS011;69719;45.544;10.218;2023-04-29T04:02:29;23.63;;;12.32;;
80392;SDS011;69719;45.544;10.218;2023-04-29T04:04:54;26.52;;;12.43;;
80392;SDS011;69719;45.544;10.218;2023-04-29T04:07:20;21.70;;;11.80;;
80392;SDS011;69719;45.544;10.218;2023-04-29T04:09:45;26.50;;;13.07;;
80392;SDS011;69719;45.544;10.218;2023-04-29T04:12:11;21.27;;;12.60;;
80392;SDS011;69719;45.544;10.218;2023-04-29T04:14:36;23.88;;;12.45;;
80392;SDS011;69719;45.544;10.218;2023-04-29T04:17:02;22.25;;;12.10;;
80392;SDS011;69719;45.544;10.218;2023-04-29T04:19:29;23.45;;;11.35;;
80392;SDS011;69719;45.544;10.218;2023-04-29T04:21:55;21.83;;;11.98;;
80392;SDS011;69719;45.544;10.218;2023-04-29T04:24:20;22.55;;;12.35;;
80392;SDS011;69719;45.544;10.218;2023-04-29T04:26:46;27.15;;;15.70;;
80392;SDS011;69719;45.544;10.218;2023-04-29T04:29:12;19.83;;;11.23;;
80392;SDS011;69719;45.544;10.218;2023-04-29T04:31:38;22.10;;;12.73;;
80392;SDS011;69719;45.544;10.218;2023-04-29T04:34:03;20.70;;;11.00;;
80392;SDS011;69719;45.544;10.218;2023-04-29T04:36:29;20.75;;;11.48;;
80392;SDS011;69719;45.544;10.218;2023-04-29T04:38:54;22.95;;;12.65;;
80392;SDS011;69719;45.544;10.218;2023-04-29T04:41:20;23.58;;;11.73;;
80392;SDS011;69719;45.544;10.218;2023-04-29T04:43:45;22.05;;;11.77;;
80392;SDS011;69719;45.544;10.218;2023-04-29T04:46:12;37.08;;;22.63;;
80392;SDS011;69719;45.544;10.218;2023-04-29T04:48:39;27.63;;;14.13;;
80392;SDS011;69719;45.544;10.218;2023-04-29T04:51:09;25.85;;;13.13;;
80392;SDS011;69719;45.544;10.218;2023-04-29T04:53:35;24.88;;;12.65;;
80392;SDS011;69719;45.544;10.218;2023-04-29T04:56:01;27.67;;;12.90;;
80392;SDS011;69719;45.544;10.218;2023-04-29T04:58:28;23.90;;;13.57;;
80392;SDS011;69719;45.544;10.218;2023-04-29T05:00:55;22.15;;;13.65;;
80392;SDS011;69719;45.544;10.218;2023-04-29T05:03:21;26.92;;;14.23;;
80392;SDS011;69719;45.544;10.218;2023-04-29T05:05:51;22.45;;;11.90;;
80392;SDS011;69719;45.544;10.218;2023-04-29T05:08:18;22.33;;;12.50;;
80392;SDS011;69719;45.544;10.218;2023-04-29T05:10:43;25.30;;;13.00;;
80392;SDS011;69719;45.544;10.218;2023-04-29T05:13:09;35.15;;;13.68;;
80392;SDS011;69719;45.544;10.218;2023-04-29T05:15:34;26.63;;;12.98;;
80392;SDS011;69719;45.544;10.218;2023-04-29T05:18:00;24.98;;;14.10;;
80392;SDS011;69719;45.544;10.218;2023-04-29T05:20:25;28.17;;;13.70;;
80392;SDS011;69719;45.544;10.218;2023-04-29T05:22:51;23.23;;;13.02;;
80392;SDS011;69719;45.544;10.218;2023-04-29T05:25:16;26.33;;;13.23;;
80392;SDS011;69719;45.544;10.218;2023-04-29T05:27:42;23.67;;;12.63;;
80392;SDS011;69719;45.544;10.218;2023-04-29T05:30:07;24.55;;;12.93;;
80392;SDS011;69719;45.544;10.218;2023-04-29T05:32:33;23.70;;;12.27;;
80392;SDS011;69719;45.544;10.218;2023-04-29T05:34:59;25.67;;;13.70;;
80392;SDS011;69719;45.544;10.218;2023-04-29T05:37:24;23.63;;;13.90;;
80392;SDS011;69719;45.544;10.218;2023-04-29T05:39:54;26.02;;;13.88;;
80392;SDS011;69719;45.544;10.218;2023-04-29T05:42:20;20.17;;;12.45;;
80392;SDS011;69719;45.544;10.218;2023-04-29T05:44:46;16.70;;;9.07;;
80392;SDS011;69719;45.544;10.218;2023-04-29T05:47:11;13.77;;;7.57;;
80392;SDS011;69719;45.544;10.218;2023-04-29T05:49:37;15.63;;;7.57;;
80392;SDS011;69719;45.544;10.218;2023-04-29T05:52:03;15.07;;;6.80;;
80392;SDS011;69719;45.544;10.218;2023-04-29T05:54:31;20.85;;;8.55;;
80392;SDS011;69719;45.544;10.218;2023-04-29T05:56:57;18.90;;;9.02;;
80392;SDS011;69719;45.544;10.218;2023-04-29T05:59:23;18.83;;;7.30;;
80392;SDS011;69719;45.544;10.218;2023-04-29T06:01:49;18.55;;;7.97;;
80392;SDS011;69719;45.544;10.218;2023-04-29T06:04:15;12.75;;;7.00;;
80392;SDS011;69719;45.544;10.218;2023-04-29T06:06:40;12.35;;;6.63;;
80392;SDS011;69719;45.544;10.218;2023-04-29T06:09:06;17.10;;;7.80;;
80392;SDS011;69719;45.544;10.218;2023-04-29T06:11:32;13.50;;;7.53;;
80392;SDS011;69719;45.544;10.218;2023-04-29T06:13:58;35.97;;;9.43;;
80392;SDS011;69719;45.544;10.218;2023-04-29T06:16:23;16.67;;;7.80;;
80392;SDS011;69719;45.544;10.218;2023-04-29T06:18:49;18.27;;;7.82;;
80392;SDS011;69719;45.544;10.218;2023-04-29T06:21:14;18.30;;;7.95;;
80392;SDS011;69719;45.544;10.218;2023-04-29T06:23:40;16.98;;;8.55;;
80392;SDS011;69719;45.544;10.218;2023-04-29T06:26:05;19.42;;;8.65;;
80392;SDS011;69719;45.544;10.218;2023-04-29T06:28:31;18.50;;;9.02;;
80392;SDS011;69719;45.544;10.218;2023-04-29T06:30:56;20.23;;;8.55;;
80392;SDS011;69719;45.544;10.218;2023-04-29T06:33:22;18.60;;;8.75;;
80392;SDS011;69719;45.544;10.218;2023-04-29T06:35:48;16.63;;;9.13;;
80392;SDS011;69719;45.544;10.218;2023-04-29T06:38:13;22.20;;;10.18;;
80392;SDS011;69719;45.544;10.218;2023-04-29T06:40:39;18.67;;;9.20;;
80392;SDS011;69719;45.544;10.218;2023-04-29T06:43:04;18.60;;;8.65;;
80392;SDS011;69719;45.544;10.218;2023-04-29T06:45:29;19.85;;;9.02;;
80392;SDS011;69719;45.544;10.218;2023-04-29T06:47:55;18.60;;;9.20;;
80392;SDS011;69719;45.544;10.218;2023-04-29T06:50:21;27.85;;;15.57;;
80392;SDS011;69719;45.544;10.218;2023-04-29T06:52:46;18.33;;;9.15;;
80392;SDS011;69719;45.544;10.218;2023-04-29T06:55:13;19.70;;;9.40;;
80392;SDS011;69719;45.544;10.218;2023-04-29T06:57:38;21.00;;;9.13;;
80392;SDS011;69719;45.544;10.218;2023-04-29T07:00:04;22.80;;;9.27;;
80392;SDS011;69719;45.544;10.218;2023-04-29T07:02:30;17.35;;;8.90;;
80392;SDS011;69719;45.544;10.218;2023-04-29T07:04:55;19.38;;;9.55;;
80392;SDS011;69719;45.544;10.218;2023-04-29T07:07:21;19.23;;;11.02;;
80392;SDS011;69719;45.544;10.218;2023-04-29T07:09:47;18.92;;;9.73;;
80392;SDS011;69719;45.544;10.218;2023-04-29T07:12:15;18.92;;;10.70;;
80392;SDS011;69719;45.544;10.218;2023-04-29T07:14:41;21.58;;;10.20;;
80392;SDS011;69719;45.544;10.218;2023-04-29T07:17:07;20.88;;;10.48;;
80392;SDS011;69719;45.544;10.218;2023-04-29T07:19:32;19.48;;;10.68;;
80392;SDS011;69719;45.544;10.218;2023-04-29T07:21:58;18.83;;;10.15;;
80392;SDS011;69719;45.544;10.218;2023-04-29T07:24:23;17.05;;;10.25;;
80392;SDS011;69719;45.544;10.218;2023-04-29T07:26:49;23.33;;;11.32;;
80392;SDS011;69719;45.544;10.218;2023-04-29T07:29:14;20.83;;;11.05;;
80392;SDS011;69719;45.544;10.218;2023-04-29T07:31:40;22.20;;;12.18;;
80392;SDS011;69719;45.544;10.218;2023-04-29T07:34:05;19.77;;;11.43;;
80392;SDS011;69719;45.544;10.218;2023-04-29T07:36:31;23.75;;;10.52;;
80392;SDS011;69719;45.544;10.218;2023-04-29T07:38:57;21.48;;;11.85;;
80392;SDS011;69719;45.544;10.218;2023-04-29T07:41:23;21.23;;;11.75;;
80392;SDS011;69719;45.544;10.218;2023-04-29T07:43:48;21.17;;;11.35;;
80392;SDS011;69719;45.544;10.218;2023-04-29T07:46:14;22.10;;;11.88;;
80392;SDS011;69719;45.544;10.218;2023-04-29T07:48:42;25.65;;;12.55;;
80392;SDS011;69719;45.544;10.218;2023-04-29T07:51:12;23.52;;;11.73;;
80392;SDS011;69719;45.544;10.218;2023-04-29T07:53:38;21.17;;;11.40;;
80392;SDS011;69719;45.544;10.218;2023-04-29T07:56:07;23.30;;;12.10;;
80392;SDS011;69719;45.544;10.218;2023-04-29T07:58:33;18.63;;;11.73;;
80392;SDS011;69719;45.544;10.218;2023-04-29T08:01:06;22.08;;;11.70;;
80392;SDS011;69719;45.544;10.218;2023-04-29T08:03:32;26.90;;;12.40;;
80392;SDS011;69719;45.544;10.218;2023-04-29T08:06:01;23.92;;;12.32;;
80392;SDS011;69719;45.544;10.218;2023-04-29T08:08:28;21.50;;;12.88;;
80392;SDS011;69719;45.544;10.218;2023-04-29T08:10:57;24.08;;;12.57;;
80392;SDS011;69719;45.544;10.218;2023-04-29T08:13:22;23.23;;;12.05;;
80392;SDS011;69719;45.544;10.218;2023-04-29T08:15:48;23.58;;;13.52;;
80392;SDS011;69719;45.544;10.218;2023-04-29T08:18:14;21.50;;;13.00;;
80392;SDS011;69719;45.544;10.218;2023-04-29T08:20:40;23.50;;;12.25;;
80392;SDS011;69719;45.544;10.218;2023-04-29T08:23:05;24.05;;;11.93;;
80392;SDS011;69719;45.544;10.218;2023-04-29T08:25:31;20.85;;;11.77;;
80392;SDS011;69719;45.544;10.218;2023-04-29T08:27:57;19.58;;;11.25;;
80392;SDS011;69719;45.544;10.218;2023-04-29T08:30:22;19.77;;;11.73;;
80392;SDS011;69719;45.544;10.218;2023-04-29T08:32:48;16.38;;;10.55;;
80392;SDS011;69719;45.544;10.218;2023-04-29T08:35:14;24.13;;;11.73;;
80392;SDS011;69719;45.544;10.218;2023-04-29T08:37:40;19.83;;;12.23;;
80392;SDS011;69719;45.544;10.218;2023-04-29T08:40:07;23.02;;;12.63;;
80392;SDS011;69719;45.544;10.218;2023-04-29T08:42:34;25.30;;;15.05;;
80392;SDS011;69719;45.544;10.218;2023-04-29T08:45:01;21.17;;;12.50;;
80392;SDS011;69719;45.544;10.218;2023-04-29T08:47:31;23.30;;;14.10;;
80392;SDS011;69719;45.544;10.218;2023-04-29T08:50:02;22.50;;;14.15;;
80392;SDS011;69719;45.544;10.218;2023-04-29T08:52:29;22.73;;;13.98;;
80392;SDS011;69719;45.544;10.218;2023-04-29T08:54:58;20.08;;;13.20;;
80392;SDS011;69719;45.544;10.218;2023-04-29T08:57:27;21.40;;;12.43;;
80392;SDS011;69719;45.544;10.218;2023-04-29T08:59:55;21.40;;;12.60;;
80392;SDS011;69719;45.544;10.218;2023-04-29T09:02:20;23.17;;;13.23;;
80392;SDS011;69719;45.544;10.218;2023-04-29T09:04:57;24.08;;;15.95;;
80392;SDS011;69719;45.544;10.218;2023-04-29T09:07:29;22.10;;;13.00;;
80392;SDS011;69719;45.544;10.218;2023-04-29T09:09:55;23.90;;;13.70;;
80392;SDS011;69719;45.544;10.218;2023-04-29T09:12:23;24.05;;;14.02;;
80392;SDS011;69719;45.544;10.218;2023-04-29T09:14:49;20.50;;;13.43;;
80392;SDS011;69719;45.544;10.218;2023-04-29T09:17:14;20.27;;;13.23;;
80392;SDS011;69719;45.544;10.218;2023-04-29T09:19:40;22.92;;;13.40;;
80392;SDS011;69719;45.544;10.218;2023-04-29T09:22:08;23.90;;;14.30;;
80392;SDS011;69719;45.544;10.218;2023-04-29T09:24:34;24.10;;;13.43;;
80392;SDS011;69719;45.544;10.218;2023-04-29T09:26:59;25.45;;;14.48;;
80392;SDS011;69719;45.544;10.218;2023-04-29T09:29:27;24.85;;;14.88;;
80392;SDS011;69719;45.544;10.218;2023-04-29T09:31:53;29.42;;;14.90;;
80392;SDS011;69719;45.544;10.218;2023-04-29T09:34:33;25.63;;;13.80;;
80392;SDS011;69719;45.544;10.218;2023-04-29T09:37:07;22.02;;;14.77;;
80392;SDS011;69719;45.544;10.218;2023-04-29T09:39:48;29.15;;;19.50;;
80392;SDS011;69719;45.544;10.218;2023-04-29T09:42:13;23.40;;;15.23;;
80392;SDS011;69719;45.544;10.218;2023-04-29T09:44:40;25.33;;;15.93;;
80392;SDS011;69719;45.544;10.218;2023-04-29T09:47:07;26.05;;;18.05;;
80392;SDS011;69719;45.544;10.218;2023-04-29T09:49:38;23.55;;;15.55;;
80392;SDS011;69719;45.544;10.218;2023-04-29T09:52:12;26.45;;;15.85;;
80392;SDS011;69719;45.544;10.218;2023-04-29T09:54:44;25.52;;;16.63;;
80392;SDS011;69719;45.544;10.218;2023-04-29T09:57:10;21.55;;;14.60;;
80392;SDS011;69719;45.544;10.218;2023-04-29T09:59:37;26.63;;;16.70;;
80392;SDS011;69719;45.544;10.218;2023-04-29T10:02:06;24.42;;;16.88;;
80392;SDS011;69719;45.544;10.218;2023-04-29T10:04:38;25.90;;;17.23;;
80392;SDS011;69719;45.544;10.218;2023-04-29T10:07:05;27.67;;;16.92;;
80392;SDS011;69719;45.544;10.218;2023-04-29T10:09:32;28.83;;;17.15;;
80392;SDS011;69719;45.544;10.218;2023-04-29T10:12:00;22.92;;;15.90;;
80392;SDS011;69719;45.544;10.218;2023-04-29T10:14:28;27.60;;;16.70;;
80392;SDS011;69719;45.544;10.218;2023-04-29T10:17:07;24.63;;;16.70;;
80392;SDS011;69719;45.544;10.218;2023-04-29T10:22:15;25.05;;;15.10;;
80392;SDS011;69719;45.544;10.218;2023-04-29T10:24:59;24.77;;;16.83;;
80392;SDS011;69719;45.544;10.218;2023-04-29T10:27:25;28.67;;;17.13;;
80392;SDS011;69719;45.544;10.218;2023-04-29T10:29:53;25.05;;;16.25;;
80392;SDS011;69719;45.544;10.218;2023-04-29T10:32:22;25.92;;;16.48;;
80392;SDS011;69719;45.544;10.218;2023-04-29T10:34:48;26.17;;;16.50;;
80392;SDS011;69719;45.544;10.218;2023-04-29T10:37:16;25.73;;;17.73;;
80392;SDS011;69719;45.544;10.218;2023-04-29T10:39:49;26.75;;;18.13;;
80392;SDS011;69719;45.544;10.218;2023-04-29T10:42:46;26.70;;;18.58;;
80392;SDS011;69719;45.544;10.218;2023-04-29T10:50:30;29.50;;;20.23;;
80392;SDS011;69719;45.544;10.218;2023-04-29T10:53:03;27.58;;;19.35;;
80392;SDS011;69719;45.544;10.218;2023-04-29T10:55:30;29.08;;;19.83;;
80392;SDS011;69719;45.544;10.218;2023-04-29T10:57:56;31.23;;;19.70;;
80392;SDS011;69719;45.544;10.218;2023-04-29T11:02:54;27.08;;;19.25;;
80392;SDS011;69719;45.544;10.218;2023-04-29T11:05:30;26.33;;;19.20;;
80392;SDS011;69719;45.544;10.218;2023-04-29T11:10:43;25.95;;;18.85;;
80392;SDS011;69719;45.544;10.218;2023-04-29T11:13:44;27.17;;;19.38;;
80392;SDS011;69719;45.544;10.218;2023-04-29T11:16:04;25.15;;;17.92;;
80392;SDS011;69719;45.544;10.218;2023-04-29T11:18:32;27.75;;;19.15;;
80392;SDS011;69719;45.544;10.218;2023-04-29T11:23:40;25.20;;;18.40;;
80392;SDS011;69719;45.544;10.218;2023-04-29T11:26:06;26.33;;;18.75;;
80392;SDS011;69719;45.544;10.218;2023-04-29T11:28:32;30.58;;;19.10;;
80392;SDS011;69719;45.544;10.218;2023-04-29T11:30:58;26.45;;;20.13;;
80392;SDS011;69719;45.544;10.218;2023-04-29T11:33:24;26.98;;;19.52;;
80392;SDS011;69719;45.544;10.218;2023-04-29T11:35:54;29.33;;;20.08;;
80392;SDS011;69719;45.544;10.218;2023-04-29T11:38:29;27.88;;;19.27;;
80392;SDS011;69719;45.544;10.218;2023-04-29T11:40:55;22.63;;;16.45;;
80392;SDS011;69719;45.544;10.218;2023-04-29T11:43:22;27.35;;;17.27;;
80392;SDS011;69719;45.544;10.218;2023-04-29T11:45:50;26.30;;;16.67;;
80392;SDS011;69719;45.544;10.218;2023-04-29T11:48:17;31.33;;;18.85;;
80392;SDS011;69719;45.544;10.218;2023-04-29T11:50:47;23.88;;;16.55;;
80392;SDS011;69719;45.544;10.218;2023-04-29T11:53:15;25.60;;;16.40;;
80392;SDS011;69719;45.544;10.218;2023-04-29T11:55:43;24.83;;;15.90;;
80392;SDS011;69719;45.544;10.218;2023-04-29T11:58:10;23.38;;;16.45;;
80392;SDS011;69719;45.544;10.218;2023-04-29T12:00:35;25.33;;;15.95;;
80392;SDS011;69719;45.544;10.218;2023-04-29T12:03:06;22.65;;;13.65;;
80392;SDS011;69719;45.544;10.218;2023-04-29T12:05:51;27.98;;;14.70;;
80392;SDS011;69719;45.544;10.218;2023-04-29T12:08:19;20.17;;;12.73;;
80392;SDS011;69719;45.544;10.218;2023-04-29T12:10:48;20.50;;;12.57;;
80392;SDS011;69719;45.544;10.218;2023-04-29T12:13:14;19.67;;;12.80;;
80392;SDS011;69719;45.544;10.218;2023-04-29T12:15:46;20.20;;;13.05;;
80392;SDS011;69719;45.544;10.218;2023-04-29T12:18:14;20.13;;;12.60;;
80392;SDS011;69719;45.544;10.218;2023-04-29T12:20:42;19.00;;;10.73;;
80392;SDS011;69719;45.544;10.218;2023-04-29T12:23:11;18.95;;;11.02;;
80392;SDS011;69719;45.544;10.218;2023-04-29T12:25:37;17.17;;;11.13;;
80392;SDS011;69719;45.544;10.218;2023-04-29T12:28:03;22.42;;;10.25;;
80392;SDS011;69719;45.544;10.218;2023-04-29T12:30:29;15.63;;;9.43;;
80392;SDS011;69719;45.544;10.218;2023-04-29T12:32:54;20.58;;;12.77;;
80392;SDS011;69719;45.544;10.218;2023-04-29T12:35:20;19.90;;;12.30;;
80392;SDS011;69719;45.544;10.218;2023-04-29T12:37:49;23.13;;;12.85;;
80392;SDS011;69719;45.544;10.218;2023-04-29T12:40:15;21.88;;;13.73;;
80392;SDS011;69719;45.544;10.218;2023-04-29T12:42:42;20.35;;;13.43;;
80392;SDS011;69719;45.544;10.218;2023-04-29T12:45:24;21.80;;;11.77;;
80392;SDS011;69719;45.544;10.218;2023-04-29T12:47:51;21.58;;;12.15;;
80392;SDS011;69719;45.544;10.218;2023-04-29T12:50:16;21.13;;;14.10;;
80392;SDS011;69719;45.544;10.218;2023-04-29T12:52:42;21.48;;;14.27;;
80392;SDS011;69719;45.544;10.218;2023-04-29T12:55:07;19.35;;;13.00;;
80392;SDS011;69719;45.544;10.218;2023-04-29T12:57:33;22.48;;;13.20;;
80392;SDS011;69719;45.544;10.218;2023-04-29T12:59:58;22.67;;;12.40;;
80392;SDS011;69719;45.544;10.218;2023-04-29T13:02:24;19.85;;;13.77;;
80392;SDS011;69719;45.544;10.218;2023-04-29T13:04:49;20.23;;;12.13;;
80392;SDS011;69719;45.544;10.218;2023-04-29T13:07:15;18.92;;;12.00;;
80392;SDS011;69719;45.544;10.218;2023-04-29T13:09:40;18.73;;;10.45;;
80392;SDS011;69719;45.544;10.218;2023-04-29T13:12:06;14.32;;;8.45;;
80392;SDS011;69719;45.544;10.218;2023-04-29T13:14:33;13.20;;;8.45;;
80392;SDS011;69719;45.544;10.218;2023-04-29T13:16:58;21.10;;;10.20;;
80392;SDS011;69719;45.544;10.218;2023-04-29T13:19:24;15.48;;;8.77;;
80392;SDS011;69719;45.544;10.218;2023-04-29T13:21:49;16.95;;;9.32;;
80392;SDS011;69719;45.544;10.218;2023-04-29T13:24:15;15.85;;;9.50;;
80392;SDS011;69719;45.544;10.218;2023-04-29T13:26:42;17.55;;;9.20;;
80392;SDS011;69719;45.544;10.218;2023-04-29T13:29:08;14.40;;;8.13;;
80392;SDS011;69719;45.544;10.218;2023-04-29T13:31:33;16.45;;;9.13;;
80392;SDS011;69719;45.544;10.218;2023-04-29T13:33:59;19.40;;;10.25;;
80392;SDS011;69719;45.544;10.218;2023-04-29T13:36:24;16.23;;;9.02;;
80392;SDS011;69719;45.544;10.218;2023-04-29T13:38:52;17.45;;;9.35;;
80392;SDS011;69719;45.544;10.218;2023-04-29T13:41:17;14.52;;;8.40;;
80392;SDS011;69719;45.544;10.218;2023-04-29T13:43:43;18.05;;;8.40;;
80392;SDS011;69719;45.544;10.218;2023-04-29T13:46:08;15.15;;;8.48;;
80392;SDS011;69719;45.544;10.218;2023-04-29T13:48:34;15.27;;;7.88;;
80392;SDS011;69719;45.544;10.218;2023-04-29T13:50:59;16.10;;;9.15;;
80392;SDS011;69719;45.544;10.218;2023-04-29T13:53:25;16.75;;;9.20;;
80392;SDS011;69719;45.544;10.218;2023-04-29T13:55:51;16.13;;;8.55;;
80392;SDS011;69719;45.544;10.218;2023-04-29T13:58:17;16.73;;;7.68;;
80392;SDS011;69719;45.544;10.218;2023-04-29T14:00:42;18.25;;;8.07;;
80392;SDS011;69719;45.544;10.218;2023-04-29T14:03:08;18.52;;;8.68;;
80392;SDS011;69719;45.544;10.218;2023-04-29T14:05:33;11.82;;;8.10;;
80392;SDS011;69719;45.544;10.218;2023-04-29T14:07:59;15.48;;;8.88;;
80392;SDS011;69719;45.544;10.218;2023-04-29T14:10:25;16.27;;;8.45;;
80392;SDS011;69719;45.544;10.218;2023-04-29T14:12:50;15.65;;;7.88;;
80392;SDS011;69719;45.544;10.218;2023-04-29T14:15:16;18.05;;;8.63;;
80392;SDS011;69719;45.544;10.218;2023-04-29T14:17:41;15.90;;;8.85;;
80392;SDS011;69719;45.544;10.218;2023-04-29T14:20:07;16.75;;;8.65;;
80392;SDS011;69719;45.544;10.218;2023-04-29T14:22:33;12.95;;;9.20;;
80392;SDS011;69719;45.544;10.218;2023-04-29T14:24:58;17.27;;;8.38;;
80392;SDS011;69719;45.544;10.218;2023-04-29T14:27:24;13.98;;;8.27;;
80392;SDS011;69719;45.544;10.218;2023-04-29T14:29:49;19.83;;;8.65;;
80392;SDS011;69719;45.544;10.218;2023-04-29T14:32:15;16.20;;;8.15;;
80392;SDS011;69719;45.544;10.218;2023-04-29T14:34:40;18.38;;;9.27;;
80392;SDS011;69719;45.544;10.218;2023-04-29T14:37:06;16.63;;;8.77;;
80392;SDS011;69719;45.544;10.218;2023-04-29T14:39:32;32.53;;;21.23;;
80392;SDS011;69719;45.544;10.218;2023-04-29T14:41:57;18.40;;;9.50;;
80392;SDS011;69719;45.544;10.218;2023-04-29T14:44:24;18.17;;;10.10;;